Time;durP1;ratioP1;P1;durP2;ratioP2;P2;SDS_P1;SDS_P2;PMS_P1;PMS_P2;Temp;Humidity;BMP_temperature;BMP_pressure;BME280_temperature;BME280_humidity;BME280_pressure;Samples;Min_cycle;Max_cycle;Signal;HPM_P1;HPM_P2
2021/06/19 00:00:05;;;;;;;13.02;7.82;;;26.20;54.40;;;;;;6232672;27;81495;-67
2021/06/19 00:03:05;;;;;;;11.27;7.78;;;26.20;54.70;;;;;;6236357;27;80856;-67
2021/06/19 00:06:06;;;;;;;9.77;6.90;;;26.20;54.70;;;;;;6235886;27;80793;-67
2021/06/19 00:09:06;;;;;;;10.85;7.60;;;26.20;54.70;;;;;;6237331;28;80100;-67
2021/06/19 00:12:07;;;;;;;9.32;6.90;;;26.20;54.90;;;;;;6234621;28;87620;-66
2021/06/19 00:15:07;;;;;;;12.63;7.20;;;26.20;54.90;;;;;;6243031;27;80461;-67
2021/06/19 00:18:08;;;;;;;9.35;7.07;;;26.10;54.60;;;;;;6235991;28;80103;-66
2021/06/19 00:21:08;;;;;;;11.75;7.47;;;26.10;54.60;;;;;;6237504;27;82040;-66
2021/06/19 00:24:09;;;;;;;14.05;8.15;;;26.10;54.90;;;;;;6233501;27;80926;-66
2021/06/19 00:27:09;;;;;;;9.85;7.43;;;26.20;54.50;;;;;;6236306;27;81102;-67
2021/06/19 00:30:10;;;;;;;11.13;8.07;;;26.10;54.70;;;;;;6229987;28;83747;-68
2021/06/19 00:33:10;;;;;;;13.18;7.50;;;26.10;54.80;;;;;;6236578;27;80349;-68
2021/06/19 00:36:11;;;;;;;7.60;6.38;;;26.10;54.60;;;;;;6236839;28;80872;-67
2021/06/19 00:39:11;;;;;;;9.75;7.32;;;26.10;54.70;;;;;;6235582;27;80260;-68
2021/06/19 00:42:12;;;;;;;10.27;7.28;;;26.10;54.90;;;;;;6236311;28;80523;-67
2021/06/19 00:45:12;;;;;;;13.55;7.72;;;26.10;54.70;;;;;;6228266;28;80910;-69
2021/06/19 00:48:13;;;;;;;14.38;7.50;;;26.10;54.40;;;;;;6233715;28;80324;-68
2021/06/19 00:51:13;;;;;;;11.05;7.30;;;26.10;54.50;;;;;;6236666;27;80900;-68
2021/06/19 00:54:14;;;;;;;11.82;8.05;;;26.10;54.60;;;;;;6233813;27;80273;-67
2021/06/19 00:57:14;;;;;;;10.45;7.43;;;26.10;54.20;;;;;;6237153;27;80476;-68
2021/06/19 01:00:15;;;;;;;9.02;6.88;;;26.10;54.20;;;;;;6236603;27;80628;-68
2021/06/19 01:03:15;;;;;;;9.88;7.50;;;26.10;54.70;;;;;;6233967;28;83739;-68
2021/06/19 01:06:16;;;;;;;10.52;6.93;;;26.10;54.70;;;;;;6236692;28;80160;-68
2021/06/19 01:09:16;;;;;;;8.45;6.43;;;26.10;54.50;;;;;;6236285;28;80498;-68
2021/06/19 01:12:22;;;;;;;9.18;6.72;;;26.10;55.00;;;;;;6235835;27;80956;-68
2021/06/19 01:15:23;;;;;;;13.10;7.38;;;26.10;54.70;;;;;;6233833;27;80411;-66
2021/06/19 01:18:23;;;;;;;11.77;8.48;;;26.10;54.70;;;;;;6236514;28;80477;-66
2021/06/19 01:21:24;;;;;;;12.95;7.55;;;26.10;54.40;;;;;;6235244;27;81315;-68
2021/06/19 01:24:24;;;;;;;10.05;7.07;;;26.10;54.60;;;;;;6235269;27;80590;-67
2021/06/19 01:27:25;;;;;;;15.27;7.72;;;26.10;54.50;;;;;;6235271;28;80440;-67
2021/06/19 01:30:26;;;;;;;8.85;6.95;;;26.10;54.40;;;;;;6231574;27;80818;-67
2021/06/19 01:33:26;;;;;;;11.68;7.60;;;26.10;54.40;;;;;;6233828;27;80598;-67
2021/06/19 01:36:27;;;;;;;11.40;7.75;;;26.00;54.20;;;;;;6233753;28;80319;-67
2021/06/19 01:39:27;;;;;;;12.77;6.95;;;26.10;54.20;;;;;;6226955;27;80581;-66
2021/06/19 01:42:28;;;;;;;10.35;6.57;;;26.10;54.50;;;;;;6238424;28;80586;-66
2021/06/19 01:45:29;;;;;;;11.75;7.05;;;26.10;54.60;;;;;;6231021;28;80768;-66
2021/06/19 01:48:29;;;;;;;11.02;7.10;;;26.00;54.50;;;;;;6226996;27;81280;-67
2021/06/19 01:51:30;;;;;;;12.88;8.10;;;26.00;54.60;;;;;;6234981;27;80153;-66
2021/06/19 01:54:39;;;;;;;10.45;7.75;;;26.00;54.50;;;;;;6236637;27;80937;-66
2021/06/19 01:57:40;;;;;;;9.77;7.72;;;26.00;54.80;;;;;;6240215;27;80439;-66
2021/06/19 02:00:40;;;;;;;16.05;7.60;;;26.00;54.50;;;;;;6234238;27;81479;-66
2021/06/19 02:03:41;;;;;;;13.38;7.30;;;26.00;54.10;;;;;;6237353;27;82142;-66
2021/06/19 02:06:41;;;;;;;10.30;7.60;;;26.00;54.20;;;;;;6234180;27;80634;-66
2021/06/19 02:09:42;;;;;;;8.43;7.00;;;26.00;54.10;;;;;;6230253;27;81614;-66
2021/06/19 02:12:42;;;;;;;9.98;6.97;;;26.00;54.30;;;;;;6243346;27;80479;-66
2021/06/19 02:15:43;;;;;;;11.57;6.93;;;25.90;54.00;;;;;;6231932;28;81206;-66
2021/06/19 02:18:43;;;;;;;9.15;7.47;;;26.00;54.00;;;;;;6235309;28;80511;-67
2021/06/19 02:21:44;;;;;;;10.40;7.90;;;26.00;53.80;;;;;;6234596;27;80337;-67
2021/06/19 02:24:45;;;;;;;11.18;7.88;;;26.00;53.80;;;;;;6230510;27;80699;-67
2021/06/19 02:27:45;;;;;;;11.20;8.52;;;25.90;53.60;;;;;;6237213;27;80409;-67
2021/06/19 02:30:46;;;;;;;14.70;8.82;;;25.80;53.60;;;;;;6232735;27;80670;-67
2021/06/19 02:33:47;;;;;;;12.85;8.70;;;25.80;53.80;;;;;;6230268;27;80302;-66
2021/06/19 02:36:48;;;;;;;14.23;9.70;;;25.70;53.70;;;;;;6233353;27;80308;-66
2021/06/19 02:39:48;;;;;;;12.43;8.95;;;25.70;53.90;;;;;;6224981;27;80594;-66
2021/06/19 02:42:49;;;;;;;14.45;9.50;;;25.70;53.90;;;;;;6233976;28;80500;-66
2021/06/19 02:45:49;;;;;;;15.18;9.35;;;25.70;53.80;;;;;;6232212;28;80434;-66
2021/06/19 02:48:50;;;;;;;12.75;8.45;;;25.60;53.80;;;;;;6231293;28;82397;-66
2021/06/19 02:51:50;;;;;;;13.52;8.68;;;25.60;53.70;;;;;;6232263;28;80720;-67
2021/06/19 02:54:51;;;;;;;15.48;8.35;;;25.70;53.80;;;;;;6238186;27;82058;-67
2021/06/19 02:57:51;;;;;;;10.82;7.95;;;25.70;53.90;;;;;;6230402;27;83263;-66
2021/06/19 03:00:53;;;;;;;11.27;7.57;;;25.70;54.00;;;;;;6233308;27;87393;-67
2021/06/19 03:03:53;;;;;;;13.30;7.80;;;25.70;53.90;;;;;;6231561;27;81099;-67
2021/06/19 03:06:54;;;;;;;9.77;7.53;;;25.70;53.90;;;;;;6225244;27;81591;-67
2021/06/19 03:09:54;;;;;;;11.38;8.10;;;25.70;54.00;;;;;;6230464;27;81365;-67
2021/06/19 03:12:55;;;;;;;10.00;7.93;;;25.70;54.00;;;;;;6229466;27;80551;-67
2021/06/19 03:15:55;;;;;;;11.38;8.00;;;25.70;54.20;;;;;;6227980;28;81926;-67
2021/06/19 03:18:56;;;;;;;14.05;7.57;;;25.80;54.30;;;;;;6244353;27;80487;-67
2021/06/19 03:21:57;;;;;;;11.68;7.88;;;25.80;54.30;;;;;;6241733;27;80912;-67
2021/06/19 03:24:57;;;;;;;11.20;8.30;;;25.80;54.10;;;;;;6233834;27;81497;-67
2021/06/19 03:27:58;;;;;;;12.70;7.75;;;25.80;54.30;;;;;;6233191;27;82086;-67
2021/06/19 03:30:58;;;;;;;14.98;8.32;;;25.70;54.00;;;;;;6233040;27;80898;-66
2021/06/19 03:33:59;;;;;;;13.20;8.23;;;25.80;53.90;;;;;;6225405;28;81031;-66
2021/06/19 03:37:00;;;;;;;11.60;7.28;;;25.80;53.70;;;;;;6232885;27;80416;-65
2021/06/19 03:40:01;;;;;;;11.93;7.68;;;25.80;53.70;;;;;;6237487;27;81217;-66
2021/06/19 03:43:01;;;;;;;9.75;7.57;;;25.80;53.80;;;;;;6229598;28;81642;-65
2021/06/19 03:46:02;;;;;;;9.05;7.25;;;25.80;53.50;;;;;;6234101;27;80995;-65
2021/06/19 03:49:02;;;;;;;17.52;7.60;;;25.90;53.60;;;;;;6236632;27;81552;-66
2021/06/19 03:52:03;;;;;;;10.93;7.30;;;25.90;53.50;;;;;;6239941;27;80616;-66
2021/06/19 03:55:03;;;;;;;12.63;7.30;;;25.90;53.50;;;;;;6234639;27;80367;-66
2021/06/19 03:58:04;;;;;;;13.30;7.78;;;25.90;53.50;;;;;;6238319;27;80673;-66
2021/06/19 04:01:04;;;;;;;10.85;7.35;;;25.90;54.10;;;;;;6231951;27;82446;-65
2021/06/19 04:04:05;;;;;;;11.80;7.18;;;25.90;53.70;;;;;;6242383;28;81443;-66
2021/06/19 04:07:05;;;;;;;21.40;7.57;;;25.90;53.80;;;;;;6228400;27;80519;-66
2021/06/19 04:10:06;;;;;;;14.40;7.43;;;25.90;53.80;;;;;;6233732;27;81682;-65
2021/06/19 04:13:06;;;;;;;14.43;7.25;;;25.90;54.20;;;;;;6236608;27;80597;-65
2021/06/19 04:16:09;;;;;;;9.73;7.05;;;25.90;54.00;;;;;;6237218;27;80629;-66
2021/06/19 04:19:09;;;;;;;13.88;7.88;;;25.90;54.40;;;;;;6234193;28;80400;-66
2021/06/19 04:22:10;;;;;;;12.77;6.95;;;25.90;54.60;;;;;;6236178;27;80501;-65
2021/06/19 04:25:10;;;;;;;11.48;7.32;;;26.00;54.30;;;;;;6235790;27;80522;-66
2021/06/19 04:28:11;;;;;;;10.30;8.10;;;26.00;53.80;;;;;;6233441;28;80559;-65
2021/06/19 04:31:11;;;;;;;19.13;9.48;;;26.00;54.30;;;;;;6237137;27;81101;-64
2021/06/19 04:34:12;;;;;;;14.98;8.02;;;26.00;54.40;;;;;;6236963;27;81018;-66
2021/06/19 04:37:13;;;;;;;10.77;7.65;;;26.00;54.30;;;;;;6233897;27;80540;-65
2021/06/19 04:43:42;;;;;;;10.20;8.00;;;26.00;54.70;;;;;;6241989;27;85318;-65
2021/06/19 04:46:42;;;;;;;13.75;8.48;;;26.00;54.70;;;;;;6236157;27;80964;-65
2021/06/19 04:49:43;;;;;;;11.73;8.38;;;26.00;54.70;;;;;;6233696;27;84171;-64
2021/06/19 04:52:44;;;;;;;13.98;8.68;;;26.00;54.60;;;;;;6233177;27;80685;-64
2021/06/19 04:55:44;;;;;;;16.20;7.88;;;26.00;54.70;;;;;;6236966;27;80761;-65
2021/06/19 04:58:45;;;;;;;12.48;8.05;;;26.00;54.80;;;;;;6242211;27;80506;-66
2021/06/19 05:01:46;;;;;;;19.00;8.40;;;26.00;54.80;;;;;;6236167;27;80329;-67
2021/06/19 05:04:46;;;;;;;13.68;7.80;;;26.00;55.10;;;;;;6235378;27;80264;-66
2021/06/19 05:07:47;;;;;;;11.55;7.05;;;26.00;55.10;;;;;;6236399;27;81362;-65
2021/06/19 05:10:48;;;;;;;11.27;7.53;;;26.00;55.70;;;;;;6234039;28;81649;-63
2021/06/19 05:13:49;;;;;;;11.73;7.35;;;26.10;55.10;;;;;;6233515;27;81567;-64
2021/06/19 05:16:49;;;;;;;17.10;9.15;;;26.10;55.10;;;;;;6232322;27;83264;-65
2021/06/19 05:19:50;;;;;;;12.50;8.20;;;26.00;55.50;;;;;;6233895;27;80622;-66
2021/06/19 05:22:50;;;;;;;11.00;8.15;;;26.10;55.60;;;;;;6237349;27;80474;-66
2021/06/19 05:25:51;;;;;;;12.23;8.35;;;26.10;55.50;;;;;;6234255;27;80385;-65
2021/06/19 05:28:51;;;;;;;15.98;8.60;;;26.20;55.70;;;;;;6232190;27;80823;-65
2021/06/19 05:31:52;;;;;;;10.45;8.23;;;26.20;55.40;;;;;;6230107;27;83030;-65
2021/06/19 05:34:53;;;;;;;10.57;7.53;;;26.10;55.70;;;;;;6231868;28;80492;-64
2021/06/19 05:37:53;;;;;;;17.85;8.40;;;26.20;55.40;;;;;;6235240;27;82571;-65
2021/06/19 05:40:54;;;;;;;12.85;8.25;;;26.20;55.90;;;;;;6233793;27;80441;-63
2021/06/19 05:43:54;;;;;;;13.13;7.60;;;26.10;55.80;;;;;;6233461;27;80395;-64
2021/06/19 05:46:55;;;;;;;12.60;7.55;;;26.10;55.90;;;;;;6236863;27;80527;-64
2021/06/19 05:49:55;;;;;;;14.40;8.73;;;26.20;55.90;;;;;;6239449;27;81647;-65
2021/06/19 05:52:56;;;;;;;13.07;8.57;;;26.20;56.00;;;;;;6235466;27;80323;-65
2021/06/19 05:55:56;;;;;;;16.88;8.52;;;26.20;55.80;;;;;;6234171;27;83042;-65
2021/06/19 05:58:57;;;;;;;15.40;8.40;;;26.20;56.30;;;;;;6228945;27;80682;-63
2021/06/19 06:01:58;;;;;;;14.07;8.63;;;26.20;55.90;;;;;;6233399;27;81371;-64
2021/06/19 06:04:58;;;;;;;14.50;8.43;;;26.10;56.00;;;;;;6235894;27;80548;-63
2021/06/19 06:08:00;;;;;;;15.27;8.02;;;26.20;56.30;;;;;;6232804;27;81532;-65
2021/06/19 06:11:00;;;;;;;12.93;8.38;;;26.20;56.40;;;;;;6241530;28;80499;-65
2021/06/19 06:14:01;;;;;;;27.80;8.85;;;26.20;56.60;;;;;;6232262;27;80461;-64
2021/06/19 06:17:01;;;;;;;17.35;8.43;;;26.30;56.60;;;;;;6231832;27;80610;-64
2021/06/19 06:20:02;;;;;;;15.05;8.13;;;26.30;56.30;;;;;;6233903;27;81613;-64
2021/06/19 06:23:02;;;;;;;16.42;8.02;;;26.30;56.60;;;;;;6229683;27;80574;-66
2021/06/19 06:26:03;;;;;;;15.18;8.27;;;26.30;57.20;;;;;;6232619;27;81039;-65
2021/06/19 06:29:03;;;;;;;12.18;7.63;;;26.30;57.50;;;;;;6231707;27;80501;-64
2021/06/19 06:32:04;;;;;;;16.30;8.02;;;26.30;57.40;;;;;;6232138;27;80382;-66
2021/06/19 06:35:05;;;;;;;14.30;7.50;;;26.30;57.30;;;;;;6234938;27;81547;-64
2021/06/19 06:38:05;;;;;;;11.18;7.65;;;26.30;57.50;;;;;;6233003;27;81397;-66
2021/06/19 06:41:06;;;;;;;10.23;7.28;;;26.30;57.30;;;;;;6236342;27;80712;-65
2021/06/19 06:44:07;;;;;;;12.65;8.10;;;26.30;56.90;;;;;;6233457;27;80838;-66
2021/06/19 06:47:08;;;;;;;12.43;8.43;;;26.30;57.30;;;;;;6238199;27;80525;-67
2021/06/19 06:50:08;;;;;;;10.52;7.97;;;26.30;57.00;;;;;;6232924;27;80389;-66
2021/06/19 06:53:09;;;;;;;13.25;8.23;;;26.30;57.10;;;;;;6231492;27;81989;-68
2021/06/19 06:56:09;;;;;;;13.30;7.93;;;26.40;57.30;;;;;;6233417;27;81542;-67
2021/06/19 06:59:10;;;;;;;105.57;38.85;;;26.40;57.50;;;;;;6230191;27;80814;-69
2021/06/19 07:02:11;;;;;;;249.35;88.35;;;26.40;57.50;;;;;;6229291;27;82937;-70
2021/06/19 07:05:12;;;;;;;474.02;175.50;;;26.40;57.40;;;;;;6221629;28;84173;-69
2021/06/19 07:08:12;;;;;;;552.05;207.23;;;26.30;57.40;;;;;;6218196;28;85587;-70
2021/06/19 07:11:13;;;;;;;488.48;182.65;;;26.30;57.40;;;;;;6234623;27;85988;-70
2021/06/19 07:14:13;;;;;;;596.20;259.20;;;26.40;57.40;;;;;;6223809;28;85758;-69
2021/06/19 07:17:14;;;;;;;585.78;261.13;;;26.40;57.40;;;;;;6227120;27;85590;-69
2021/06/19 07:20:15;;;;;;;706.35;322.40;;;26.30;57.30;;;;;;6227512;27;86722;-68
2021/06/19 07:23:16;;;;;;;640.90;290.10;;;26.30;57.30;;;;;;6234459;27;85791;-68
2021/06/19 07:26:16;;;;;;;577.03;251.20;;;26.30;57.30;;;;;;6225645;27;88263;-68
2021/06/19 07:29:17;;;;;;;501.58;201.18;;;26.30;57.40;;;;;;6221049;28;85964;-68
2021/06/19 07:32:17;;;;;;;414.88;166.90;;;26.40;57.00;;;;;;6219233;28;85815;-68
2021/06/19 07:35:18;;;;;;;383.15;153.95;;;26.40;57.10;;;;;;6224947;27;86705;-67
2021/06/19 07:38:18;;;;;;;344.35;135.45;;;26.40;57.20;;;;;;6223082;27;88140;-68
2021/06/19 07:41:19;;;;;;;288.70;114.32;;;26.40;57.50;;;;;;6220701;28;86567;-69
2021/06/19 07:44:20;;;;;;;262.10;107.30;;;26.40;57.40;;;;;;6220947;27;85934;-69
2021/06/19 07:47:20;;;;;;;210.70;87.82;;;26.40;57.40;;;;;;6220846;27;86936;-69
2021/06/19 07:50:21;;;;;;;206.48;83.13;;;26.40;57.40;;;;;;6221573;27;85296;-69
2021/06/19 07:53:21;;;;;;;194.63;76.57;;;26.40;57.60;;;;;;6225011;28;83988;-69
2021/06/19 07:56:22;;;;;;;164.30;72.50;;;26.40;57.70;;;;;;6227182;27;83320;-70
2021/06/19 07:59:22;;;;;;;150.85;61.80;;;26.40;57.80;;;;;;6227336;27;83557;-69
2021/06/19 08:02:23;;;;;;;144.98;60.78;;;26.40;57.80;;;;;;6226710;28;83138;-69
2021/06/19 08:05:24;;;;;;;130.50;51.95;;;26.50;57.80;;;;;;6224647;27;83507;-70
2021/06/19 08:08:24;;;;;;;108.33;47.17;;;26.50;57.20;;;;;;6225932;28;83150;-69
2021/06/19 08:11:26;;;;;;;105.20;45.92;;;26.50;57.20;;;;;;6226836;27;84422;-69
2021/06/19 08:14:27;;;;;;;89.10;39.85;;;26.60;57.30;;;;;;6224291;28;83356;-69
2021/06/19 08:17:27;;;;;;;79.97;37.20;;;26.60;56.90;;;;;;6225447;27;84311;-68
2021/06/19 08:20:28;;;;;;;73.10;31.88;;;26.70;57.10;;;;;;6225276;27;84119;-68
2021/06/19 08:23:29;;;;;;;63.33;28.42;;;26.60;56.70;;;;;;6212162;27;84506;-69
2021/06/19 08:26:29;;;;;;;57.78;24.60;;;26.60;56.30;;;;;;6224346;27;82939;-69
2021/06/19 08:29:30;;;;;;;49.17;20.50;;;26.60;56.50;;;;;;6231416;27;83798;-68
2021/06/19 08:32:30;;;;;;;41.13;20.02;;;26.60;56.90;;;;;;6232283;27;83415;-68
2021/06/19 08:35:31;;;;;;;40.45;16.15;;;26.60;56.60;;;;;;6223572;27;83251;-68
2021/06/19 08:38:31;;;;;;;32.13;16.00;;;26.60;56.30;;;;;;6228949;28;84838;-67
2021/06/19 08:41:32;;;;;;;31.75;14.85;;;26.70;56.30;;;;;;6233839;27;83240;-68
2021/06/19 08:44:33;;;;;;;28.60;14.02;;;26.70;56.40;;;;;;6228933;27;83580;-68
2021/06/19 08:47:36;;;;;;;25.38;13.50;;;26.70;56.30;;;;;;6229076;28;84016;-69
2021/06/19 08:50:39;;;;;;;29.02;15.23;;;26.70;56.30;;;;;;6231563;27;83768;-69
2021/06/19 08:53:40;;;;;;;25.83;13.85;;;26.70;56.30;;;;;;6225767;28;85782;-68
2021/06/19 08:56:40;;;;;;;24.58;12.20;;;26.70;56.60;;;;;;6229492;27;83303;-67
2021/06/19 08:59:41;;;;;;;21.65;11.48;;;26.70;56.60;;;;;;6231428;27;83114;-69
2021/06/19 09:02:41;;;;;;;21.15;11.05;;;26.70;56.20;;;;;;6232513;27;84276;-68
2021/06/19 09:05:42;;;;;;;19.13;10.50;;;26.70;56.40;;;;;;6238514;27;83296;-69
2021/06/19 09:08:42;;;;;;;17.83;9.95;;;26.70;56.10;;;;;;6232375;27;83141;-67
2021/06/19 09:11:43;;;;;;;18.80;10.13;;;26.80;56.10;;;;;;6241064;27;82996;-68
2021/06/19 09:14:43;;;;;;;14.48;9.02;;;26.70;55.80;;;;;;6232819;27;82972;-68
2021/06/19 09:17:44;;;;;;;16.08;8.27;;;26.80;55.50;;;;;;6233411;27;83025;-68
2021/06/19 09:20:54;;;;;;;14.90;7.50;;;26.80;55.40;;;;;;6240069;27;80439;-68
2021/06/19 09:23:54;;;;;;;13.90;8.07;;;26.80;55.40;;;;;;6230857;27;82805;-68
2021/06/19 09:26:55;;;;;;;12.27;8.02;;;26.70;54.90;;;;;;6236033;27;80685;-68
2021/06/19 09:29:55;;;;;;;9.00;7.20;;;26.70;55.20;;;;;;6235308;27;82173;-68
2021/06/19 09:32:56;;;;;;;13.75;8.15;;;26.70;55.20;;;;;;6239247;27;80242;-68
2021/06/19 09:35:56;;;;;;;8.82;5.93;;;26.70;55.00;;;;;;6231772;28;80459;-69
2021/06/19 09:38:57;;;;;;;12.57;7.82;;;26.70;54.90;;;;;;6236792;27;80819;-68
2021/06/19 09:41:57;;;;;;;64.80;18.08;;;26.70;54.50;;;;;;6235157;28;80623;-67
2021/06/19 09:44:58;;;;;;;43.67;19.58;;;26.80;56.80;;;;;;6231355;27;84539;-68
2021/06/19 09:47:59;;;;;;;89.15;50.03;;;26.80;54.80;;;;;;6231083;28;83747;-68
2021/06/19 09:50:59;;;;;;;61.88;35.67;;;26.80;55.20;;;;;;6229557;27;84898;-68
2021/06/19 09:54:00;;;;;;;31.67;16.65;;;26.80;54.90;;;;;;6233652;27;83502;-68
2021/06/19 09:57:00;;;;;;;22.73;10.98;;;27.00;51.50;;;;;;6231933;27;83262;-68
2021/06/19 10:00:01;;;;;;;19.95;9.07;;;27.00;50.50;;;;;;6233687;27;83950;-67
2021/06/19 10:03:02;;;;;;;19.92;11.88;;;27.10;50.70;;;;;;6233568;27;83263;-68
2021/06/19 10:06:02;;;;;;;18.48;12.43;;;27.10;51.20;;;;;;6230305;28;83216;-68
2021/06/19 10:09:03;;;;;;;28.00;15.50;;;27.10;52.40;;;;;;6230807;27;83166;-69
2021/06/19 10:12:03;;;;;;;49.10;23.60;;;27.10;52.50;;;;;;6230084;27;83410;-69
2021/06/19 10:15:04;;;;;;;39.53;23.73;;;27.10;53.20;;;;;;6231771;27;83016;-68
2021/06/19 10:18:04;;;;;;;51.78;28.88;;;27.10;53.70;;;;;;6237240;28;83689;-68
2021/06/19 10:21:05;;;;;;;60.35;31.50;;;27.10;54.10;;;;;;6226342;27;85278;-69
2021/06/19 10:24:05;;;;;;;48.88;23.15;;;27.00;54.50;;;;;;6231309;27;83540;-67
2021/06/19 10:27:06;;;;;;;39.92;22.23;;;27.10;53.70;;;;;;6231150;27;82901;-67
2021/06/19 10:30:06;;;;;;;21.73;15.32;;;27.10;53.70;;;;;;6231028;28;83043;-67
2021/06/19 10:33:07;;;;;;;28.90;15.90;;;27.20;53.40;;;;;;6232477;27;83267;-68
2021/06/19 10:36:07;;;;;;;22.85;12.13;;;27.20;53.40;;;;;;6235882;27;83212;-67
2021/06/19 10:39:08;;;;;;;20.13;11.50;;;27.20;53.30;;;;;;6230033;27;85972;-67
2021/06/19 10:42:08;;;;;;;22.90;12.52;;;27.30;54.00;;;;;;6227083;28;83238;-69
2021/06/19 10:45:09;;;;;;;14.95;8.48;;;27.20;53.80;;;;;;6228220;27;84355;-67
2021/06/19 10:48:09;;;;;;;10.45;6.72;;;27.20;53.80;;;;;;6233868;27;82989;-68
2021/06/19 10:51:10;;;;;;;12.50;7.40;;;27.30;53.00;;;;;;6234060;27;81201;-68
2021/06/19 10:54:10;;;;;;;9.95;6.45;;;27.30;53.30;;;;;;6234520;28;80555;-68
2021/06/19 10:57:11;;;;;;;13.57;6.25;;;27.30;52.90;;;;;;6232875;27;81188;-68
2021/06/19 11:00:11;;;;;;;9.23;5.18;;;27.40;52.30;;;;;;6232662;27;81356;-68
2021/06/19 11:03:12;;;;;;;8.05;5.00;;;27.40;51.50;;;;;;6232793;28;83312;-68
2021/06/19 11:06:12;;;;;;;5.60;5.00;;;27.40;52.10;;;;;;6234522;27;80949;-69
2021/06/19 11:09:15;;;;;;;4.68;4.13;;;27.50;51.20;;;;;;6229326;28;81782;-70
2021/06/19 11:12:15;;;;;;;6.70;5.43;;;27.60;51.30;;;;;;6231843;28;80346;-69
2021/06/19 11:15:19;;;;;;;8.65;4.88;;;27.60;51.30;;;;;;6230783;28;80432;-69
2021/06/19 11:18:20;;;;;;;7.22;4.95;;;27.60;51.80;;;;;;6233575;27;84904;-67
2021/06/19 11:21:23;;;;;;;9.75;4.65;;;27.50;52.00;;;;;;6226744;27;80692;-67
2021/06/19 11:24:24;;;;;;;6.28;5.47;;;27.50;52.10;;;;;;6228096;28;80140;-68
2021/06/19 11:27:24;;;;;;;12.05;5.13;;;27.60;50.50;;;;;;6231722;27;80873;-68
2021/06/19 11:30:25;;;;;;;6.70;5.03;;;27.60;51.20;;;;;;6229593;27;85105;-70
2021/06/19 11:33:26;;;;;;;8.32;4.53;;;27.50;51.10;;;;;;6225872;27;80851;-67
2021/06/19 11:36:26;;;;;;;5.95;4.68;;;27.50;52.20;;;;;;6228010;28;80849;-67
2021/06/19 11:39:27;;;;;;;7.25;5.05;;;27.50;51.30;;;;;;6229468;27;81403;-67
2021/06/19 11:42:27;;;;;;;7.07;4.72;;;27.70;50.60;;;;;;6232323;28;80374;-68
2021/06/19 11:45:28;;;;;;;7.22;4.88;;;27.70;50.60;;;;;;6230043;28;81094;-67
2021/06/19 11:48:28;;;;;;;7.80;4.70;;;27.60;50.80;;;;;;6231442;28;81176;-67
2021/06/19 11:51:31;;;;;;;7.22;5.05;;;27.70;51.20;;;;;;6228738;28;80409;-68
2021/06/19 11:54:32;;;;;;;6.53;4.63;;;27.60;51.40;;;;;;6227561;28;82184;-68
2021/06/19 11:57:32;;;;;;;7.53;4.82;;;27.60;51.30;;;;;;6231707;28;80641;-68
2021/06/19 12:00:33;;;;;;;6.70;4.50;;;27.60;51.50;;;;;;6234260;27;80777;-68
2021/06/19 12:03:33;;;;;;;7.00;4.50;;;27.50;51.50;;;;;;6233187;27;81515;-69
2021/06/19 12:06:35;;;;;;;9.27;4.78;;;27.50;51.40;;;;;;6228178;27;83078;-69
2021/06/19 12:09:36;;;;;;;12.35;5.53;;;27.50;51.70;;;;;;6233722;27;81151;-67
2021/06/19 12:12:36;;;;;;;8.05;4.68;;;27.50;51.80;;;;;;6229914;27;81770;-68
2021/06/19 12:15:37;;;;;;;8.02;4.95;;;27.70;50.80;;;;;;6234158;28;80709;-68
2021/06/19 12:18:37;;;;;;;8.48;4.55;;;27.70;50.90;;;;;;6232791;27;80674;-67
2021/06/19 12:21:38;;;;;;;6.95;4.80;;;27.70;51.00;;;;;;6233172;27;80411;-66
2021/06/19 12:24:38;;;;;;;12.77;5.13;;;27.70;50.70;;;;;;6234662;27;81374;-67
2021/06/19 12:27:39;;;;;;;6.70;4.95;;;27.90;50.00;;;;;;6230566;27;80961;-67
2021/06/19 12:30:39;;;;;;;6.65;4.95;;;27.90;49.90;;;;;;6229599;27;80771;-66
2021/06/19 12:33:40;;;;;;;10.90;5.22;;;27.80;50.60;;;;;;6236061;27;80723;-66
2021/06/19 12:36:40;;;;;;;6.90;4.63;;;27.80;51.30;;;;;;6237695;27;80558;-68
2021/06/19 12:39:41;;;;;;;7.53;4.85;;;27.70;51.20;;;;;;6240052;27;81437;-66
2021/06/19 12:42:43;;;;;;;6.15;4.80;;;27.70;50.60;;;;;;6236453;27;80550;-66
2021/06/19 12:45:44;;;;;;;5.78;4.90;;;27.70;51.40;;;;;;6240704;27;82059;-60
2021/06/19 12:48:44;;;;;;;9.93;5.07;;;27.80;51.00;;;;;;6235699;27;80491;-67
2021/06/19 12:51:45;;;;;;;8.18;4.45;;;27.70;51.40;;;;;;6222968;27;80876;-66
2021/06/19 12:54:46;;;;;;;15.05;4.95;;;27.70;52.20;;;;;;6236568;27;80510;-67
2021/06/19 12:57:46;;;;;;;7.38;4.68;;;27.70;51.50;;;;;;6236103;27;80604;-66
2021/06/19 13:00:47;;;;;;;6.15;5.15;;;27.70;51.70;;;;;;6237310;28;80076;-67
2021/06/19 13:03:48;;;;;;;10.10;5.20;;;27.90;51.60;;;;;;6234862;27;81772;-66
2021/06/19 13:06:49;;;;;;;7.20;4.93;;;27.80;51.80;;;;;;6232315;27;82522;-65
2021/06/19 13:09:49;;;;;;;5.45;4.80;;;27.80;52.20;;;;;;6236858;27;80912;-67
2021/06/19 13:12:52;;;;;;;6.88;4.60;;;27.90;51.60;;;;;;6233411;27;80994;-66
2021/06/19 13:15:52;;;;;;;6.40;4.82;;;28.00;50.90;;;;;;6234697;27;80556;-66
2021/06/19 13:18:53;;;;;;;5.47;4.80;;;28.00;50.90;;;;;;6233080;28;80606;-67
2021/06/19 13:21:53;;;;;;;8.27;5.20;;;28.00;51.40;;;;;;6234285;27;80089;-65
2021/06/19 13:24:54;;;;;;;8.30;5.50;;;28.10;51.40;;;;;;6236468;27;80966;-66
2021/06/19 13:27:57;;;;;;;8.68;5.07;;;28.10;51.90;;;;;;6236312;27;80304;-66
2021/06/19 13:30:58;;;;;;;5.72;5.10;;;28.10;51.70;;;;;;6234017;27;80361;-66
2021/06/19 13:33:59;;;;;;;7.43;4.90;;;28.10;51.40;;;;;;6235369;27;80872;-66
2021/06/19 13:37:00;;;;;;;9.90;6.45;;;28.00;51.70;;;;;;6240232;28;80474;-67
2021/06/19 13:40:06;;;;;;;74.30;27.90;;;27.90;51.90;;;;;;6235096;27;80440;-65
2021/06/19 13:43:06;;;;;;;102.35;43.00;;;27.90;51.30;;;;;;6231729;27;83179;-65
2021/06/19 13:46:07;;;;;;;83.15;35.90;;;27.90;52.10;;;;;;6231324;28;83330;-66
2021/06/19 13:49:07;;;;;;;116.82;45.15;;;27.90;52.00;;;;;;6229505;27;83144;-65
2021/06/19 13:52:08;;;;;;;145.85;59.03;;;27.90;52.20;;;;;;6230834;27;83380;-66
2021/06/19 13:55:10;;;;;;;140.65;56.05;;;27.80;52.00;;;;;;6229097;28;84237;-66
2021/06/19 13:58:10;;;;;;;114.00;47.55;;;27.80;52.00;;;;;;6224426;28;83833;-66
2021/06/19 14:01:11;;;;;;;86.68;36.92;;;27.90;51.70;;;;;;6228489;27;84059;-65
2021/06/19 14:04:12;;;;;;;66.05;28.92;;;27.90;51.60;;;;;;6231298;27;83107;-66
2021/06/19 14:07:12;;;;;;;49.85;21.52;;;27.90;51.40;;;;;;6229811;27;82925;-65
2021/06/19 14:10:13;;;;;;;49.22;21.27;;;27.90;51.50;;;;;;6230256;28;83045;-65
2021/06/19 14:13:13;;;;;;;41.88;18.85;;;27.80;51.60;;;;;;6225159;27;84368;-65
2021/06/19 14:16:14;;;;;;;42.30;13.55;;;27.80;51.80;;;;;;6229951;27;83817;-65
2021/06/19 14:19:14;;;;;;;17.27;9.93;;;27.80;51.80;;;;;;6229995;28;82938;-63
2021/06/19 14:22:15;;;;;;;20.42;10.13;;;27.80;51.30;;;;;;6226046;27;82874;-64
2021/06/19 14:25:17;;;;;;;16.45;7.88;;;27.90;51.00;;;;;;6229864;27;83095;-64
2021/06/19 14:28:18;;;;;;;15.68;8.70;;;27.90;50.50;;;;;;6236082;28;82742;-64
2021/06/19 14:31:18;;;;;;;10.48;5.95;;;27.90;50.80;;;;;;6233160;28;80584;-64
2021/06/19 14:34:19;;;;;;;10.88;6.25;;;27.90;50.50;;;;;;6233045;27;80986;-64
2021/06/19 14:37:19;;;;;;;9.13;5.75;;;27.90;50.70;;;;;;6235451;28;81619;-64
2021/06/19 14:40:20;;;;;;;10.32;5.07;;;27.90;50.50;;;;;;6234726;27;80943;-65
2021/06/19 14:43:21;;;;;;;7.22;4.40;;;27.90;49.70;;;;;;6216517;28;83409;-66
2021/06/19 14:46:23;;;;;;;7.03;4.35;;;28.00;48.80;;;;;;6231685;27;80365;-65
2021/06/19 14:49:24;;;;;;;8.52;4.80;;;28.00;50.20;;;;;;6213565;28;83415;-64
2021/06/19 14:52:24;;;;;;;9.23;4.55;;;27.90;50.00;;;;;;6237640;28;80833;-66
2021/06/19 14:55:25;;;;;;;5.53;4.80;;;27.90;50.20;;;;;;6226450;28;81115;-66
2021/06/19 14:58:26;;;;;;;5.22;4.72;;;27.90;50.20;;;;;;6229994;27;82394;-66
2021/06/19 15:01:28;;;;;;;9.48;4.50;;;27.90;50.40;;;;;;6222833;27;80452;-66
2021/06/19 15:04:28;;;;;;;7.22;5.13;;;27.80;50.50;;;;;;6241840;27;80763;-67
2021/06/19 15:07:29;;;;;;;5.45;4.72;;;27.80;50.10;;;;;;6232672;27;82706;-67
2021/06/19 15:10:30;;;;;;;5.60;4.78;;;27.80;50.30;;;;;;6242161;27;80806;-67
2021/06/19 15:13:30;;;;;;;7.53;4.82;;;27.80;50.80;;;;;;6237645;27;85815;-66
2021/06/19 15:16:31;;;;;;;8.75;4.60;;;27.80;50.90;;;;;;6230542;27;80417;-66
2021/06/19 15:19:31;;;;;;;4.85;4.40;;;27.80;51.50;;;;;;6248171;28;80309;-66
2021/06/19 15:22:32;;;;;;;8.68;4.70;;;27.70;51.90;;;;;;6231713;27;80507;-65
2021/06/19 15:25:32;;;;;;;6.53;5.10;;;27.80;51.60;;;;;;6233898;27;84347;-65
2021/06/19 15:28:33;;;;;;;5.03;4.47;;;27.70;51.30;;;;;;6239117;27;81810;-66